sensor_id;sensor_type;location;lat;lon;timestamp;P1;durP1;ratioP1;P2;durP2;ratioP2
44536;SDS011;30245;51.966;6.292;2023-06-22T00:00:40;1.35;;;0.82;;
44536;SDS011;30245;51.966;6.292;2023-06-22T00:03:07;2.65;;;0.90;;
44536;SDS011;30245;51.966;6.292;2023-06-22T00:05:33;2.97;;;1.17;;
44536;SDS011;30245;51.966;6.292;2023-06-22T00:10:32;1.33;;;1.08;;
44536;SDS011;30245;51.966;6.292;2023-06-22T00:12:58;2.20;;;1.33;;
44536;SDS011;30245;51.966;6.292;2023-06-22T00:15:23;1.80;;;0.95;;
44536;SDS011;30245;51.966;6.292;2023-06-22T00:17:49;1.52;;;0.70;;
44536;SDS011;30245;51.966;6.292;2023-06-22T00:20:16;3.83;;;1.73;;
44536;SDS011;30245;51.966;6.292;2023-06-22T00:22:43;1.30;;;0.90;;
44536;SDS011;30245;51.966;6.292;2023-06-22T00:25:09;1.88;;;1.05;;
44536;SDS011;30245;51.966;6.292;2023-06-22T00:27:37;1.50;;;0.93;;
44536;SDS011;30245;51.966;6.292;2023-06-22T00:30:03;1.50;;;1.00;;
44536;SDS011;30245;51.966;6.292;2023-06-22T00:32:28;2.47;;;1.15;;
44536;SDS011;30245;51.966;6.292;2023-06-22T00:34:54;2.20;;;1.13;;
44536;SDS011;30245;51.966;6.292;2023-06-22T00:37:20;2.08;;;1.20;;
44536;SDS011;30245;51.966;6.292;2023-06-22T00:39:50;2.70;;;1.20;;
44536;SDS011;30245;51.966;6.292;2023-06-22T00:42:16;1.88;;;0.88;;
44536;SDS011;30245;51.966;6.292;2023-06-22T00:44:42;1.70;;;1.20;;
44536;SDS011;30245;51.966;6.292;2023-06-22T00:47:09;1.67;;;1.10;;
44536;SDS011;30245;51.966;6.292;2023-06-22T00:49:38;1.95;;;1.38;;
44536;SDS011;30245;51.966;6.292;2023-06-22T00:52:04;1.42;;;1.08;;
44536;SDS011;30245;51.966;6.292;2023-06-22T00:54:42;3.60;;;1.25;;
44536;SDS011;30245;51.966;6.292;2023-06-22T00:57:14;1.70;;;1.00;;
44536;SDS011;30245;51.966;6.292;2023-06-22T00:59:45;2.45;;;1.40;;
44536;SDS011;30245;51.966;6.292;2023-06-22T01:02:13;2.60;;;1.38;;
44536;SDS011;30245;51.966;6.292;2023-06-22T01:04:39;2.00;;;1.50;;
44536;SDS011;30245;51.966;6.292;2023-06-22T01:07:10;1.65;;;1.08;;
44536;SDS011;30245;51.966;6.292;2023-06-22T01:09:51;2.38;;;1.40;;
44536;SDS011;30245;51.966;6.292;2023-06-22T01:12:34;1.55;;;0.90;;
44536;SDS011;30245;51.966;6.292;2023-06-22T01:15:08;2.80;;;1.40;;
44536;SDS011;30245;51.966;6.292;2023-06-22T01:17:36;3.65;;;1.23;;
44536;SDS011;30245;51.966;6.292;2023-06-22T01:20:08;1.45;;;1.20;;
44536;SDS011;30245;51.966;6.292;2023-06-22T01:22:41;3.13;;;1.50;;
44536;SDS011;30245;51.966;6.292;2023-06-22T01:25:31;1.83;;;1.23;;
44536;SDS011;30245;51.966;6.292;2023-06-22T01:28:36;1.52;;;1.27;;
44536;SDS011;30245;51.966;6.292;2023-06-22T01:31:07;3.40;;;1.42;;
44536;SDS011;30245;51.966;6.292;2023-06-22T01:33:37;1.90;;;1.20;;
44536;SDS011;30245;51.966;6.292;2023-06-22T01:36:05;2.05;;;1.15;;
44536;SDS011;30245;51.966;6.292;2023-06-22T01:38:32;3.25;;;1.95;;
44536;SDS011;30245;51.966;6.292;2023-06-22T01:40:58;4.43;;;2.35;;
44536;SDS011;30245;51.966;6.292;2023-06-22T01:43:26;2.22;;;1.63;;
44536;SDS011;30245;51.966;6.292;2023-06-22T01:45:53;2.47;;;1.80;;
44536;SDS011;30245;51.966;6.292;2023-06-22T01:48:20;1.20;;;1.02;;
44536;SDS011;30245;51.966;6.292;2023-06-22T01:50:47;2.43;;;1.33;;
44536;SDS011;30245;51.966;6.292;2023-06-22T01:53:13;2.78;;;1.67;;
44536;SDS011;30245;51.966;6.292;2023-06-22T01:55:39;2.33;;;1.33;;
44536;SDS011;30245;51.966;6.292;2023-06-22T01:58:04;2.88;;;1.90;;
44536;SDS011;30245;51.966;6.292;2023-06-22T02:00:34;2.40;;;1.23;;
44536;SDS011;30245;51.966;6.292;2023-06-22T02:03:18;2.08;;;1.63;;
44536;SDS011;30245;51.966;6.292;2023-06-22T02:06:05;2.03;;;1.23;;
44536;SDS011;30245;51.966;6.292;2023-06-22T02:08:37;2.00;;;1.80;;
44536;SDS011;30245;51.966;6.292;2023-06-22T02:11:06;2.40;;;1.67;;
44536;SDS011;30245;51.966;6.292;2023-06-22T02:13:33;1.92;;;1.58;;
44536;SDS011;30245;51.966;6.292;2023-06-22T02:15:59;2.75;;;1.50;;
44536;SDS011;30245;51.966;6.292;2023-06-22T02:18:25;2.20;;;1.50;;
44536;SDS011;30245;51.966;6.292;2023-06-22T02:20:51;3.72;;;2.00;;
44536;SDS011;30245;51.966;6.292;2023-06-22T02:23:17;3.38;;;1.48;;
44536;SDS011;30245;51.966;6.292;2023-06-22T02:25:43;2.35;;;1.85;;
44536;SDS011;30245;51.966;6.292;2023-06-22T02:28:09;3.22;;;2.35;;
44536;SDS011;30245;51.966;6.292;2023-06-22T02:30:35;1.70;;;1.60;;
44536;SDS011;30245;51.966;6.292;2023-06-22T02:33:00;1.58;;;1.40;;
44536;SDS011;30245;51.966;6.292;2023-06-22T02:35:29;1.90;;;1.50;;
44536;SDS011;30245;51.966;6.292;2023-06-22T02:38:00;1.90;;;1.40;;
44536;SDS011;30245;51.966;6.292;2023-06-22T02:40:27;3.10;;;2.15;;
44536;SDS011;30245;51.966;6.292;2023-06-22T02:42:54;2.38;;;1.88;;
44536;SDS011;30245;51.966;6.292;2023-06-22T02:45:20;3.25;;;2.03;;
44536;SDS011;30245;51.966;6.292;2023-06-22T02:47:46;2.00;;;1.58;;
44536;SDS011;30245;51.966;6.292;2023-06-22T02:50:13;3.03;;;1.48;;
44536;SDS011;30245;51.966;6.292;2023-06-22T02:52:39;2.90;;;2.53;;
44536;SDS011;30245;51.966;6.292;2023-06-22T02:55:04;2.60;;;2.40;;
44536;SDS011;30245;51.966;6.292;2023-06-22T02:57:32;3.50;;;1.75;;
44536;SDS011;30245;51.966;6.292;2023-06-22T02:59:58;3.90;;;2.28;;
44536;SDS011;30245;51.966;6.292;2023-06-22T03:02:24;2.58;;;2.38;;
44536;SDS011;30245;51.966;6.292;2023-06-22T03:04:51;2.80;;;2.47;;
44536;SDS011;30245;51.966;6.292;2023-06-22T03:07:18;3.08;;;2.35;;
44536;SDS011;30245;51.966;6.292;2023-06-22T03:09:44;2.97;;;2.58;;
44536;SDS011;30245;51.966;6.292;2023-06-22T03:12:10;2.67;;;2.45;;
44536;SDS011;30245;51.966;6.292;2023-06-22T03:14:36;2.90;;;2.67;;
44536;SDS011;30245;51.966;6.292;2023-06-22T03:17:01;3.05;;;2.42;;
44536;SDS011;30245;51.966;6.292;2023-06-22T03:19:28;3.92;;;3.05;;
44536;SDS011;30245;51.966;6.292;2023-06-22T03:21:56;3.15;;;2.90;;
44536;SDS011;30245;51.966;6.292;2023-06-22T03:24:22;2.75;;;2.55;;
44536;SDS011;30245;51.966;6.292;2023-06-22T03:26:48;3.58;;;2.95;;
44536;SDS011;30245;51.966;6.292;2023-06-22T03:29:13;3.92;;;3.60;;
44536;SDS011;30245;51.966;6.292;2023-06-22T03:31:39;3.67;;;3.38;;
44536;SDS011;30245;51.966;6.292;2023-06-22T03:34:05;2.90;;;2.65;;
44536;SDS011;30245;51.966;6.292;2023-06-22T03:36:30;4.43;;;3.58;;
44536;SDS011;30245;51.966;6.292;2023-06-22T03:38:56;4.18;;;3.78;;
44536;SDS011;30245;51.966;6.292;2023-06-22T03:41:22;3.38;;;3.08;;
44536;SDS011;30245;51.966;6.292;2023-06-22T03:43:47;3.38;;;2.70;;
44536;SDS011;30245;51.966;6.292;2023-06-22T03:46:13;4.88;;;4.22;;
44536;SDS011;30245;51.966;6.292;2023-06-22T03:48:39;3.83;;;3.53;;
44536;SDS011;30245;51.966;6.292;2023-06-22T03:51:04;4.47;;;4.15;;
44536;SDS011;30245;51.966;6.292;2023-06-22T03:53:30;4.20;;;3.80;;
44536;SDS011;30245;51.966;6.292;2023-06-22T03:55:55;5.03;;;3.72;;
44536;SDS011;30245;51.966;6.292;2023-06-22T03:58:21;4.78;;;4.30;;
44536;SDS011;30245;51.966;6.292;2023-06-22T04:00:50;9.25;;;3.58;;
44536;SDS011;30245;51.966;6.292;2023-06-22T04:03:17;3.38;;;3.08;;
44536;SDS011;30245;51.966;6.292;2023-06-22T04:05:46;4.25;;;3.90;;
44536;SDS011;30245;51.966;6.292;2023-06-22T04:08:13;4.93;;;4.22;;
44536;SDS011;30245;51.966;6.292;2023-06-22T04:10:39;4.95;;;4.50;;
44536;SDS011;30245;51.966;6.292;2023-06-22T04:13:05;5.38;;;4.80;;
44536;SDS011;30245;51.966;6.292;2023-06-22T04:15:32;6.90;;;5.00;;
44536;SDS011;30245;51.966;6.292;2023-06-22T04:17:57;5.78;;;5.28;;
44536;SDS011;30245;51.966;6.292;2023-06-22T04:20:23;6.40;;;5.35;;
44536;SDS011;30245;51.966;6.292;2023-06-22T04:22:54;5.05;;;4.65;;
44536;SDS011;30245;51.966;6.292;2023-06-22T04:25:20;4.78;;;4.32;;
44536;SDS011;30245;51.966;6.292;2023-06-22T04:27:47;11.82;;;5.80;;
44536;SDS011;30245;51.966;6.292;2023-06-22T04:30:13;5.72;;;5.22;;
44536;SDS011;30245;51.966;6.292;2023-06-22T04:32:42;5.72;;;5.32;;
44536;SDS011;30245;51.966;6.292;2023-06-22T04:35:08;6.75;;;6.10;;
44536;SDS011;30245;51.966;6.292;2023-06-22T04:37:35;6.03;;;5.53;;
44536;SDS011;30245;51.966;6.292;2023-06-22T04:40:00;6.65;;;6.05;;
44536;SDS011;30245;51.966;6.292;2023-06-22T04:42:26;6.30;;;5.80;;
44536;SDS011;30245;51.966;6.292;2023-06-22T04:44:52;7.80;;;7.07;;
44536;SDS011;30245;51.966;6.292;2023-06-22T04:47:18;8.38;;;7.57;;
44536;SDS011;30245;51.966;6.292;2023-06-22T04:49:44;7.25;;;6.65;;
44536;SDS011;30245;51.966;6.292;2023-06-22T04:52:10;8.45;;;7.55;;
44536;SDS011;30245;51.966;6.292;2023-06-22T04:54:37;6.63;;;5.88;;
44536;SDS011;30245;51.966;6.292;2023-06-22T04:57:04;9.02;;;7.60;;
44536;SDS011;30245;51.966;6.292;2023-06-22T04:59:35;7.38;;;6.65;;
44536;SDS011;30245;51.966;6.292;2023-06-22T05:02:04;8.30;;;7.50;;
44536;SDS011;30245;51.966;6.292;2023-06-22T05:04:30;8.20;;;7.43;;
44536;SDS011;30245;51.966;6.292;2023-06-22T05:06:57;7.35;;;6.75;;
44536;SDS011;30245;51.966;6.292;2023-06-22T05:09:26;8.48;;;7.78;;
44536;SDS011;30245;51.966;6.292;2023-06-22T05:11:52;8.35;;;7.55;;
44536;SDS011;30245;51.966;6.292;2023-06-22T05:14:18;8.45;;;7.65;;
44536;SDS011;30245;51.966;6.292;2023-06-22T05:16:44;9.20;;;8.23;;
44536;SDS011;30245;51.966;6.292;2023-06-22T05:19:10;6.88;;;6.22;;
44536;SDS011;30245;51.966;6.292;2023-06-22T05:21:36;6.88;;;6.25;;
44536;SDS011;30245;51.966;6.292;2023-06-22T05:24:02;8.63;;;7.82;;
44536;SDS011;30245;51.966;6.292;2023-06-22T05:26:28;8.15;;;7.55;;
44536;SDS011;30245;51.966;6.292;2023-06-22T05:28:55;9.32;;;7.65;;
44536;SDS011;30245;51.966;6.292;2023-06-22T05:31:21;8.52;;;6.85;;
44536;SDS011;30245;51.966;6.292;2023-06-22T05:33:49;7.40;;;6.60;;
44536;SDS011;30245;51.966;6.292;2023-06-22T05:36:16;8.55;;;7.35;;
44536;SDS011;30245;51.966;6.292;2023-06-22T05:38:42;7.93;;;7.18;;
44536;SDS011;30245;51.966;6.292;2023-06-22T05:41:07;8.65;;;6.53;;
44536;SDS011;30245;51.966;6.292;2023-06-22T05:43:33;6.43;;;5.82;;
44536;SDS011;30245;51.966;6.292;2023-06-22T05:46:00;6.32;;;5.72;;
44536;SDS011;30245;51.966;6.292;2023-06-22T05:48:26;7.57;;;6.88;;
44536;SDS011;30245;51.966;6.292;2023-06-22T05:50:52;9.73;;;8.75;;
44536;SDS011;30245;51.966;6.292;2023-06-22T05:53:18;8.40;;;6.65;;
44536;SDS011;30245;51.966;6.292;2023-06-22T05:55:44;8.18;;;7.00;;
44536;SDS011;30245;51.966;6.292;2023-06-22T05:58:10;8.65;;;7.85;;
44536;SDS011;30245;51.966;6.292;2023-06-22T06:00:35;7.22;;;6.47;;
44536;SDS011;30245;51.966;6.292;2023-06-22T06:03:01;6.15;;;5.55;;
44536;SDS011;30245;51.966;6.292;2023-06-22T06:05:29;10.27;;;7.25;;
44536;SDS011;30245;51.966;6.292;2023-06-22T06:07:55;7.05;;;6.05;;
44536;SDS011;30245;51.966;6.292;2023-06-22T06:10:21;11.48;;;7.40;;
44536;SDS011;30245;51.966;6.292;2023-06-22T06:12:47;12.00;;;7.95;;
44536;SDS011;30245;51.966;6.292;2023-06-22T06:15:12;7.82;;;7.13;;
44536;SDS011;30245;51.966;6.292;2023-06-22T06:17:51;6.43;;;5.93;;
44536;SDS011;30245;51.966;6.292;2023-06-22T06:20:24;8.00;;;6.03;;
44536;SDS011;30245;51.966;6.292;2023-06-22T06:22:51;7.10;;;6.47;;
44536;SDS011;30245;51.966;6.292;2023-06-22T06:25:17;6.72;;;6.15;;
44536;SDS011;30245;51.966;6.292;2023-06-22T06:27:45;7.57;;;6.88;;
44536;SDS011;30245;51.966;6.292;2023-06-22T06:30:12;6.80;;;6.20;;
44536;SDS011;30245;51.966;6.292;2023-06-22T06:32:39;6.77;;;5.83;;
44536;SDS011;30245;51.966;6.292;2023-06-22T06:35:05;5.55;;;4.95;;
44536;SDS011;30245;51.966;6.292;2023-06-22T06:37:34;5.05;;;4.65;;
44536;SDS011;30245;51.966;6.292;2023-06-22T06:40:03;4.97;;;4.57;;
44536;SDS011;30245;51.966;6.292;2023-06-22T06:42:30;6.57;;;5.53;;
44536;SDS011;30245;51.966;6.292;2023-06-22T06:44:56;5.93;;;5.43;;
44536;SDS011;30245;51.966;6.292;2023-06-22T06:47:22;6.75;;;5.82;;
44536;SDS011;30245;51.966;6.292;2023-06-22T06:49:47;7.38;;;5.97;;
44536;SDS011;30245;51.966;6.292;2023-06-22T06:52:13;6.30;;;5.70;;
44536;SDS011;30245;51.966;6.292;2023-06-22T06:54:38;7.07;;;6.03;;
44536;SDS011;30245;51.966;6.292;2023-06-22T06:57:04;5.63;;;5.18;;
44536;SDS011;30245;51.966;6.292;2023-06-22T06:59:30;5.15;;;4.75;;
44536;SDS011;30245;51.966;6.292;2023-06-22T07:01:55;5.20;;;4.80;;
44536;SDS011;30245;51.966;6.292;2023-06-22T07:04:21;8.70;;;6.13;;
44536;SDS011;30245;51.966;6.292;2023-06-22T07:06:46;6.80;;;6.20;;
44536;SDS011;30245;51.966;6.292;2023-06-22T07:09:12;5.55;;;5.05;;
44536;SDS011;30245;51.966;6.292;2023-06-22T07:11:38;7.97;;;6.30;;
44536;SDS011;30245;51.966;6.292;2023-06-22T07:14:03;5.82;;;5.32;;
44536;SDS011;30245;51.966;6.292;2023-06-22T07:16:29;4.82;;;4.35;;
44536;SDS011;30245;51.966;6.292;2023-06-22T07:18:56;5.40;;;4.80;;
44536;SDS011;30245;51.966;6.292;2023-06-22T07:21:22;6.85;;;4.18;;
44536;SDS011;30245;51.966;6.292;2023-06-22T07:23:47;5.05;;;4.57;;
44536;SDS011;30245;51.966;6.292;2023-06-22T07:26:13;5.55;;;5.05;;
44536;SDS011;30245;51.966;6.292;2023-06-22T07:28:39;6.05;;;5.40;;
44536;SDS011;30245;51.966;6.292;2023-06-22T07:31:06;6.10;;;4.38;;
44536;SDS011;30245;51.966;6.292;2023-06-22T07:33:31;5.00;;;4.45;;
44536;SDS011;30245;51.966;6.292;2023-06-22T07:35:57;4.80;;;4.50;;
44536;SDS011;30245;51.966;6.292;2023-06-22T07:38:22;4.47;;;3.88;;
44536;SDS011;30245;51.966;6.292;2023-06-22T07:40:48;4.68;;;4.28;;
44536;SDS011;30245;51.966;6.292;2023-06-22T07:43:15;4.43;;;4.13;;
44536;SDS011;30245;51.966;6.292;2023-06-22T07:45:44;5.35;;;4.93;;
44536;SDS011;30245;51.966;6.292;2023-06-22T07:48:17;5.15;;;4.70;;
44536;SDS011;30245;51.966;6.292;2023-06-22T07:50:44;4.25;;;3.85;;
44536;SDS011;30245;51.966;6.292;2023-06-22T07:53:10;4.82;;;4.32;;
44536;SDS011;30245;51.966;6.292;2023-06-22T07:55:36;4.35;;;3.95;;
44536;SDS011;30245;51.966;6.292;2023-06-22T07:58:01;4.32;;;4.03;;
44536;SDS011;30245;51.966;6.292;2023-06-22T08:00:27;4.53;;;4.13;;
44536;SDS011;30245;51.966;6.292;2023-06-22T08:02:53;5.22;;;4.40;;
44536;SDS011;30245;51.966;6.292;2023-06-22T08:05:18;4.55;;;4.15;;
44536;SDS011;30245;51.966;6.292;2023-06-22T08:07:44;5.18;;;3.60;;
44536;SDS011;30245;51.966;6.292;2023-06-22T08:10:10;5.47;;;4.72;;
44536;SDS011;30245;51.966;6.292;2023-06-22T08:12:36;5.47;;;4.97;;
44536;SDS011;30245;51.966;6.292;2023-06-22T08:15:02;4.95;;;4.55;;
44536;SDS011;30245;51.966;6.292;2023-06-22T08:17:28;5.30;;;4.80;;
44536;SDS011;30245;51.966;6.292;2023-06-22T08:19:54;4.80;;;4.40;;
44536;SDS011;30245;51.966;6.292;2023-06-22T08:22:19;4.85;;;4.43;;
44536;SDS011;30245;51.966;6.292;2023-06-22T08:24:45;4.97;;;4.57;;
44536;SDS011;30245;51.966;6.292;2023-06-22T08:27:11;4.70;;;4.30;;
44536;SDS011;30245;51.966;6.292;2023-06-22T08:29:46;4.75;;;3.78;;
44536;SDS011;30245;51.966;6.292;2023-06-22T08:32:11;4.22;;;3.88;;
44536;SDS011;30245;51.966;6.292;2023-06-22T08:34:37;4.13;;;3.33;;
44536;SDS011;30245;51.966;6.292;2023-06-22T08:37:07;5.53;;;5.05;;
44536;SDS011;30245;51.966;6.292;2023-06-22T08:39:35;4.70;;;4.05;;
44536;SDS011;30245;51.966;6.292;2023-06-22T08:42:01;4.40;;;4.00;;
44536;SDS011;30245;51.966;6.292;2023-06-22T08:44:27;6.45;;;4.97;;
44536;SDS011;30245;51.966;6.292;2023-06-22T08:46:52;3.28;;;2.95;;
44536;SDS011;30245;51.966;6.292;2023-06-22T08:49:18;5.40;;;3.97;;
44536;SDS011;30245;51.966;6.292;2023-06-22T08:51:44;4.18;;;2.83;;
44536;SDS011;30245;51.966;6.292;2023-06-22T08:54:10;6.10;;;4.57;;
44536;SDS011;30245;51.966;6.292;2023-06-22T08:56:36;3.65;;;2.78;;
44536;SDS011;30245;51.966;6.292;2023-06-22T08:59:02;2.78;;;2.47;;
44536;SDS011;30245;51.966;6.292;2023-06-22T09:01:27;3.95;;;3.45;;
44536;SDS011;30245;51.966;6.292;2023-06-22T09:03:53;3.15;;;2.95;;
44536;SDS011;30245;51.966;6.292;2023-06-22T09:06:23;2.85;;;2.10;;
44536;SDS011;30245;51.966;6.292;2023-06-22T09:08:49;2.85;;;2.65;;
44536;SDS011;30245;51.966;6.292;2023-06-22T09:11:15;3.45;;;2.70;;
44536;SDS011;30245;51.966;6.292;2023-06-22T09:13:40;3.13;;;2.70;;
44536;SDS011;30245;51.966;6.292;2023-06-22T09:16:06;4.70;;;1.92;;
44536;SDS011;30245;51.966;6.292;2023-06-22T09:18:32;3.13;;;2.83;;
44536;SDS011;30245;51.966;6.292;2023-06-22T09:20:58;3.97;;;3.20;;
44536;SDS011;30245;51.966;6.292;2023-06-22T09:23:24;4.82;;;2.53;;
44536;SDS011;30245;51.966;6.292;2023-06-22T09:25:50;4.20;;;2.80;;
44536;SDS011;30245;51.966;6.292;2023-06-22T09:28:15;3.60;;;2.75;;
44536;SDS011;30245;51.966;6.292;2023-06-22T09:30:42;3.40;;;2.30;;
44536;SDS011;30245;51.966;6.292;2023-06-22T09:33:09;3.78;;;3.47;;
44536;SDS011;30245;51.966;6.292;2023-06-22T09:35:34;3.80;;;3.22;;
44536;SDS011;30245;51.966;6.292;2023-06-22T09:38:00;3.70;;;2.72;;
44536;SDS011;30245;51.966;6.292;2023-06-22T09:40:26;2.75;;;2.45;;
44536;SDS011;30245;51.966;6.292;2023-06-22T09:42:51;3.05;;;2.83;;
44536;SDS011;30245;51.966;6.292;2023-06-22T09:45:17;3.67;;;2.22;;
44536;SDS011;30245;51.966;6.292;2023-06-22T09:47:42;2.05;;;1.85;;
44536;SDS011;30245;51.966;6.292;2023-06-22T09:50:08;3.15;;;2.40;;
44536;SDS011;30245;51.966;6.292;2023-06-22T09:52:34;3.35;;;2.65;;
44536;SDS011;30245;51.966;6.292;2023-06-22T09:54:59;2.85;;;1.92;;
44536;SDS011;30245;51.966;6.292;2023-06-22T09:57:25;4.13;;;2.05;;
44536;SDS011;30245;51.966;6.292;2023-06-22T09:59:51;3.42;;;2.00;;
44536;SDS011;30245;51.966;6.292;2023-06-22T10:02:16;3.25;;;2.17;;
44536;SDS011;30245;51.966;6.292;2023-06-22T10:04:42;2.75;;;2.00;;
44536;SDS011;30245;51.966;6.292;2023-06-22T10:07:07;3.05;;;2.83;;
44536;SDS011;30245;51.966;6.292;2023-06-22T10:09:33;2.95;;;2.35;;
44536;SDS011;30245;51.966;6.292;2023-06-22T10:11:59;2.97;;;2.35;;
44536;SDS011;30245;51.966;6.292;2023-06-22T10:14:24;2.95;;;2.55;;
44536;SDS011;30245;51.966;6.292;2023-06-22T10:16:52;3.67;;;1.80;;
44536;SDS011;30245;51.966;6.292;2023-06-22T10:19:18;3.08;;;2.17;;
44536;SDS011;30245;51.966;6.292;2023-06-22T10:21:43;4.50;;;2.60;;
44536;SDS011;30245;51.966;6.292;2023-06-22T10:24:09;2.97;;;2.75;;
44536;SDS011;30245;51.966;6.292;2023-06-22T10:26:35;3.17;;;2.75;;
44536;SDS011;30245;51.966;6.292;2023-06-22T10:29:01;2.25;;;2.05;;
44536;SDS011;30245;51.966;6.292;2023-06-22T10:31:28;3.10;;;2.78;;
44536;SDS011;30245;51.966;6.292;2023-06-22T10:33:54;3.85;;;3.10;;
44536;SDS011;30245;51.966;6.292;2023-06-22T10:36:21;2.70;;;2.08;;
44536;SDS011;30245;51.966;6.292;2023-06-22T10:38:47;2.20;;;1.92;;
44536;SDS011;30245;51.966;6.292;2023-06-22T10:41:13;2.92;;;2.72;;
44536;SDS011;30245;51.966;6.292;2023-06-22T10:43:39;2.28;;;1.88;;
44536;SDS011;30245;51.966;6.292;2023-06-22T10:46:06;2.67;;;2.47;;
44536;SDS011;30245;51.966;6.292;2023-06-22T10:48:32;2.67;;;2.47;;
44536;SDS011;30245;51.966;6.292;2023-06-22T10:50:58;2.13;;;1.90;;
44536;SDS011;30245;51.966;6.292;2023-06-22T10:53:23;5.13;;;1.95;;
44536;SDS011;30245;51.966;6.292;2023-06-22T10:55:49;1.73;;;1.38;;
44536;SDS011;30245;51.966;6.292;2023-06-22T10:58:14;2.95;;;2.17;;
44536;SDS011;30245;51.966;6.292;2023-06-22T11:00:40;2.60;;;2.08;;
44536;SDS011;30245;51.966;6.292;2023-06-22T11:03:06;3.47;;;1.95;;
44536;SDS011;30245;51.966;6.292;2023-06-22T11:05:31;3.22;;;2.65;;
44536;SDS011;30245;51.966;6.292;2023-06-22T11:07:57;3.47;;;2.78;;
44536;SDS011;30245;51.966;6.292;2023-06-22T11:10:23;3.08;;;2.28;;
44536;SDS011;30245;51.966;6.292;2023-06-22T11:12:48;3.00;;;2.17;;
44536;SDS011;30245;51.966;6.292;2023-06-22T11:15:14;2.88;;;1.98;;
44536;SDS011;30245;51.966;6.292;2023-06-22T11:17:39;1.92;;;1.73;;
44536;SDS011;30245;51.966;6.292;2023-06-22T11:20:05;2.35;;;1.83;;
44536;SDS011;30245;51.966;6.292;2023-06-22T11:22:36;8.90;;;2.70;;
44536;SDS011;30245;51.966;6.292;2023-06-22T11:25:02;2.75;;;2.08;;
44536;SDS011;30245;51.966;6.292;2023-06-22T11:27:28;2.42;;;2.22;;
44536;SDS011;30245;51.966;6.292;2023-06-22T11:29:54;2.70;;;2.20;;
44536;SDS011;30245;51.966;6.292;2023-06-22T11:32:20;2.83;;;2.05;;
44536;SDS011;30245;51.966;6.292;2023-06-22T11:34:46;2.47;;;1.90;;
44536;SDS011;30245;51.966;6.292;2023-06-22T11:37:11;5.30;;;3.45;;
44536;SDS011;30245;51.966;6.292;2023-06-22T11:39:37;2.55;;;2.35;;
44536;SDS011;30245;51.966;6.292;2023-06-22T11:42:03;5.78;;;2.40;;
44536;SDS011;30245;51.966;6.292;2023-06-22T11:44:29;2.47;;;1.77;;
44536;SDS011;30245;51.966;6.292;2023-06-22T11:46:54;1.95;;;1.35;;
44536;SDS011;30245;51.966;6.292;2023-06-22T11:49:20;4.35;;;2.47;;
44536;SDS011;30245;51.966;6.292;2023-06-22T11:51:45;2.35;;;1.70;;
44536;SDS011;30245;51.966;6.292;2023-06-22T11:54:11;2.28;;;1.90;;
44536;SDS011;30245;51.966;6.292;2023-06-22T11:56:36;2.05;;;1.85;;
44536;SDS011;30245;51.966;6.292;2023-06-22T11:59:02;2.30;;;1.83;;
44536;SDS011;30245;51.966;6.292;2023-06-22T12:01:28;3.53;;;2.15;;
44536;SDS011;30245;51.966;6.292;2023-06-22T12:03:53;4.22;;;1.65;;
44536;SDS011;30245;51.966;6.292;2023-06-22T12:06:19;1.90;;;1.45;;
44536;SDS011;30245;51.966;6.292;2023-06-22T12:08:45;4.10;;;2.78;;
44536;SDS011;30245;51.966;6.292;2023-06-22T12:11:10;2.70;;;2.22;;
44536;SDS011;30245;51.966;6.292;2023-06-22T12:13:36;4.68;;;2.65;;
44536;SDS011;30245;51.966;6.292;2023-06-22T12:16:01;2.67;;;2.28;;
44536;SDS011;30245;51.966;6.292;2023-06-22T12:18:27;2.80;;;2.50;;
44536;SDS011;30245;51.966;6.292;2023-06-22T12:20:53;2.67;;;2.38;;
44536;SDS011;30245;51.966;6.292;2023-06-22T12:23:18;2.78;;;2.58;;
44536;SDS011;30245;51.966;6.292;2023-06-22T12:25:45;3.10;;;2.45;;
44536;SDS011;30245;51.966;6.292;2023-06-22T12:28:11;3.25;;;2.95;;
44536;SDS011;30245;51.966;6.292;2023-06-22T12:30:36;3.47;;;3.05;;
44536;SDS011;30245;51.966;6.292;2023-06-22T12:33:02;4.35;;;2.95;;
44536;SDS011;30245;51.966;6.292;2023-06-22T12:35:28;3.58;;;3.28;;
44536;SDS011;30245;51.966;6.292;2023-06-22T12:37:53;4.57;;;3.70;;
44536;SDS011;30245;51.966;6.292;2023-06-22T12:40:19;3.85;;;3.55;;
44536;SDS011;30245;51.966;6.292;2023-06-22T12:42:45;3.85;;;3.20;;
44536;SDS011;30245;51.966;6.292;2023-06-22T12:45:10;3.90;;;2.88;;
44536;SDS011;30245;51.966;6.292;2023-06-22T12:47:36;4.20;;;3.80;;
44536;SDS011;30245;51.966;6.292;2023-06-22T12:50:02;4.50;;;4.10;;
44536;SDS011;30245;51.966;6.292;2023-06-22T12:52:29;5.20;;;4.05;;
44536;SDS011;30245;51.966;6.292;2023-06-22T12:54:58;3.95;;;3.50;;
44536;SDS011;30245;51.966;6.292;2023-06-22T12:57:23;3.92;;;3.53;;
44536;SDS011;30245;51.966;6.292;2023-06-22T12:59:50;3.92;;;3.58;;
44536;SDS011;30245;51.966;6.292;2023-06-22T13:02:16;4.28;;;3.88;;
44536;SDS011;30245;51.966;6.292;2023-06-22T13:04:41;5.00;;;4.35;;
44536;SDS011;30245;51.966;6.292;2023-06-22T13:07:08;3.83;;;3.53;;
44536;SDS011;30245;51.966;6.292;2023-06-22T13:09:34;5.90;;;4.72;;
44536;SDS011;30245;51.966;6.292;2023-06-22T13:12:01;5.18;;;3.30;;
44536;SDS011;30245;51.966;6.292;2023-06-22T13:14:27;3.40;;;3.10;;
44536;SDS011;30245;51.966;6.292;2023-06-22T13:16:53;4.38;;;3.97;;
44536;SDS011;30245;51.966;6.292;2023-06-22T13:19:18;4.35;;;3.95;;
44536;SDS011;30245;51.966;6.292;2023-06-22T13:21:44;4.30;;;3.90;;
44536;SDS011;30245;51.966;6.292;2023-06-22T13:24:09;4.50;;;4.10;;
44536;SDS011;30245;51.966;6.292;2023-06-22T13:26:35;4.38;;;4.03;;
44536;SDS011;30245;51.966;6.292;2023-06-22T13:29:01;6.03;;;4.78;;
44536;SDS011;30245;51.966;6.292;2023-06-22T13:31:26;3.60;;;3.30;;
44536;SDS011;30245;51.966;6.292;2023-06-22T13:33:52;6.40;;;5.10;;
44536;SDS011;30245;51.966;6.292;2023-06-22T13:36:18;4.93;;;4.53;;
44536;SDS011;30245;51.966;6.292;2023-06-22T13:38:43;5.75;;;5.35;;
44536;SDS011;30245;51.966;6.292;2023-06-22T13:41:09;4.93;;;4.53;;
44536;SDS011;30245;51.966;6.292;2023-06-22T13:43:35;6.75;;;5.30;;
44536;SDS011;30245;51.966;6.292;2023-06-22T13:46:00;4.78;;;4.45;;
44536;SDS011;30245;51.966;6.292;2023-06-22T13:48:26;4.85;;;4.53;;
44536;SDS011;30245;51.966;6.292;2023-06-22T13:50:53;5.03;;;4.63;;
44536;SDS011;30245;51.966;6.292;2023-06-22T13:53:19;4.30;;;4.03;;
44536;SDS011;30245;51.966;6.292;2023-06-22T13:55:44;5.32;;;4.82;;
44536;SDS011;30245;51.966;6.292;2023-06-22T13:58:11;5.97;;;5.28;;
44536;SDS011;30245;51.966;6.292;2023-06-22T14:00:37;5.28;;;4.88;;
44536;SDS011;30245;51.966;6.292;2023-06-22T14:03:02;5.70;;;5.30;;
44536;SDS011;30245;51.966;6.292;2023-06-22T14:05:28;4.25;;;3.95;;
44536;SDS011;30245;51.966;6.292;2023-06-22T14:07:54;6.22;;;5.72;;
44536;SDS011;30245;51.966;6.292;2023-06-22T14:10:19;6.15;;;5.57;;
44536;SDS011;30245;51.966;6.292;2023-06-22T14:12:45;5.32;;;4.82;;
44536;SDS011;30245;51.966;6.292;2023-06-22T14:15:11;5.57;;;5.03;;
44536;SDS011;30245;51.966;6.292;2023-06-22T14:17:36;6.07;;;5.53;;
44536;SDS011;30245;51.966;6.292;2023-06-22T14:20:02;6.40;;;5.50;;
44536;SDS011;30245;51.966;6.292;2023-06-22T14:22:28;5.35;;;4.97;;
44536;SDS011;30245;51.966;6.292;2023-06-22T14:24:54;6.70;;;6.20;;
44536;SDS011;30245;51.966;6.292;2023-06-22T14:27:22;6.75;;;6.25;;
44536;SDS011;30245;51.966;6.292;2023-06-22T14:29:48;8.02;;;5.80;;
44536;SDS011;30245;51.966;6.292;2023-06-22T14:32:14;5.35;;;4.95;;
44536;SDS011;30245;51.966;6.292;2023-06-22T14:34:39;5.30;;;4.80;;
44536;SDS011;30245;51.966;6.292;2023-06-22T14:37:08;6.20;;;5.75;;
44536;SDS011;30245;51.966;6.292;2023-06-22T14:39:35;6.07;;;5.60;;
44536;SDS011;30245;51.966;6.292;2023-06-22T14:42:00;7.05;;;6.45;;
44536;SDS011;30245;51.966;6.292;2023-06-22T14:44:28;7.07;;;6.57;;
44536;SDS011;30245;51.966;6.292;2023-06-22T14:46:54;7.28;;;6.68;;